Flying Club and Community

Welcome to Pacific Coast Flyers

Welcome to the online home of Pacific Coast Flyers. We are the #1 flying club in San Diego County, operating out of several airports in the San Diego area. It is our mission to provide a safe positive flying experience as well as excellent value for our members.

Pacific Coast Flyers - North County Flying Club

At Pacific Coast Flyers we provide much more than just aircraft rental. With safety events, club parties and barbecues, fly-in events and much more, you’ll see why we prefer to be called an aviation community instead of just your average “flying club”!

Pacific Coast Flyers - North County Flying Club

  • 24/7 Fleet Access
  • Well Equipped Fleet
  • Online Maint Records
  • Online Scheduling
  • Online Payments
  • Low Monthly Dues
  • No Block Deposits
  • Low Wet Rates
  • Diverse Fleet
  • Large Training Library

Local METARs

Palomar - KCRQ
2014/04/16 18:53 KCRQ 161853Z AUTO 23008KT 10SM CLR 17/11 A2985 RMK AO2 SLP104 T01720106 TSNO

Oceanside - KOKB
2014/04/16 18:52 KOKB 161852Z AUTO VRB05KT 8SM CLR 19/11 A2985 RMK AO2 SLP106 T01890106

Ramona - KRNM
2014/04/16 18:53 KRNM 161853Z 31008KT 10SM CLR 23/09 A2985 RMK AO2 SLP097 T02280094 $

Montgomery - KMYF
2014/04/16 18:53 KMYF 161853Z 19007KT 10SM CLR 19/10 A2984 RMK AO2 SLP103 T01940100

Gillespie - KSEE
2014/04/16 18:55 KSEE 161855Z AUTO 18005KT 7SM CLR 23/09 A2985 RMK AO2

Brown - KSDM
2014/04/16 18:53 KSDM 161853Z 00000KT 8SM CLR 19/11 A2985 RMK AO2 SLP104 T01940106

PCF Weather Station

 

 none
Featured Aircraft

N751SP - 2000 Cessna C-172

Location: MC CLELLAN-PALOMAR
Equipment: ADF, DME, GPS, Auto Pilot, Marker Beacon, 4-place intercom
Information: Very clean aircraf...

N8451M - 1970 Cessna C-150

Location: MC CLELLAN-PALOMAR
Equipment: DME, GPS, WAAS, Marker Beacon, TCAS, STOL Equipped, 2-place intercom
Information: Aerobatic

N733WT - 1977 Cessna C-172

Location: MC CLELLAN-PALOMAR
Equipment: DME, GPS, RNav, WAAS, Marker Beacon, TCAS, 4-place intercom
Information: Garmin GNS530W, Ga...

N734TE - 1977 Cessna C-172

Location: MC CLELLAN-PALOMAR
Equipment: GPS, WAAS, Auto Pilot, Marker Beacon, TCAS, Long Range Tanks, 4-place intercom
Information: Garmin GNS430W, Ga...

See our Entire Fleet

Instructor Spotlight

93089
John Derence
Experienced Flight Instructor with CFII, MEI and CSIP. Available for Priva...

Learn to fly with Pacific Coast Flyers

Contact Pacific Coast Flyers TODAY and get started flying with the #1 flying club in San Diego.
Call 877-PC-FLYER (877-723-5937) or click HERE.

Exclusive Promotion from AirPooler